Time;durP1;ratioP1;P1;durP2;ratioP2;P2;SDS_P1;SDS_P2;PMS_P1;PMS_P2;Temp;Humidity;BMP_temperature;BMP_pressure;BME280_temperature;BME280_humidity;BME280_pressure;Samples;Min_cycle;Max_cycle;Signal;HPM_P1;HPM_P2
2021/07/17 00:00:48;;;;;;;0.20;0.20;;;15.90;99.90;;;;;;5036647;28;20094;-87
2021/07/17 00:03:13;;;;;;;0.20;0.20;;;16.00;99.90;;;;;;5041929;28;20029;-87
2021/07/17 00:05:39;;;;;;;0.30;0.30;;;15.90;99.90;;;;;;5039018;28;20481;-87
2021/07/17 00:08:05;;;;;;;0.10;0.10;;;15.80;99.90;;;;;;5046560;28;20432;-87
2021/07/17 00:10:47;;;;;;;0.10;0.10;;;15.80;99.90;;;;;;5034585;28;20118;-87
2021/07/17 00:13:13;;;;;;;0.17;0.17;;;15.70;99.90;;;;;;5041817;28;20268;-87
2021/07/17 00:15:40;;;;;;;0.10;0.10;;;15.60;99.90;;;;;;5039302;28;20095;-87
2021/07/17 00:18:05;;;;;;;0.30;0.30;;;15.60;99.90;;;;;;5048822;28;20691;-87
2021/07/17 00:20:33;;;;;;;0.40;0.20;;;15.80;99.90;;;;;;5038607;28;20033;-87
2021/07/17 00:22:59;;;;;;;0.10;0.10;;;15.80;99.90;;;;;;5042433;28;20032;-87
2021/07/17 00:25:25;;;;;;;0.30;0.30;;;15.80;99.90;;;;;;5040182;28;20028;-87
2021/07/17 00:27:52;;;;;;;0.20;0.20;;;15.70;99.90;;;;;;5036775;28;20713;-87
2021/07/17 00:30:20;;;;;;;0.00;0.00;;;15.60;99.90;;;;;;5042574;28;20037;-88
2021/07/17 00:32:46;;;;;;;0.08;0.08;;;15.50;99.90;;;;;;5032911;28;20037;-87
2021/07/17 00:35:13;;;;;;;0.35;0.22;;;15.50;99.90;;;;;;5040963;28;20036;-87
2021/07/17 00:37:39;;;;;;;0.30;0.30;;;15.60;99.90;;;;;;5039614;28;20133;-87
2021/07/17 00:40:06;;;;;;;0.68;0.25;;;15.80;99.90;;;;;;5047480;28;20028;-87
2021/07/17 00:42:33;;;;;;;0.22;0.22;;;15.70;99.90;;;;;;5044420;28;20032;-87
2021/07/17 00:44:59;;;;;;;;;;;15.60;99.90;;;;;;5051328;28;20071;-87
2021/07/17 00:47:25;;;;;;;0.20;0.20;;;15.60;99.90;;;;;;5046617;28;20310;-87
2021/07/17 00:49:51;;;;;;;0.75;0.57;;;15.60;99.90;;;;;;5036283;28;20107;-88
2021/07/17 00:52:17;;;;;;;0.20;0.20;;;15.60;99.90;;;;;;5042748;28;20029;-88
2021/07/17 00:54:45;;;;;;;0.07;0.07;;;15.80;99.90;;;;;;5036861;28;20049;-88
2021/07/17 00:57:11;;;;;;;0.15;0.15;;;15.60;99.90;;;;;;5040265;28;20067;-88
2021/07/17 00:59:39;;;;;;;0.22;0.22;;;15.70;99.90;;;;;;5042874;28;20021;-87
2021/07/17 01:02:08;;;;;;;0.10;0.10;;;15.60;99.90;;;;;;5042700;28;20048;-87
2021/07/17 01:04:35;;;;;;;0.20;0.20;;;15.60;99.90;;;;;;5043531;28;20100;-87
2021/07/17 01:07:00;;;;;;;0.10;0.10;;;15.50;99.90;;;;;;5037638;28;20091;-87
2021/07/17 01:09:27;;;;;;;0.10;0.10;;;15.30;99.90;;;;;;5041671;28;20029;-88
2021/07/17 01:11:56;;;;;;;0.77;0.75;;;15.20;99.90;;;;;;5036514;28;20040;-87
2021/07/17 01:14:22;;;;;;;0.10;0.10;;;15.10;99.90;;;;;;5040492;28;20041;-87
2021/07/17 01:16:48;;;;;;;0.15;0.15;;;15.20;99.90;;;;;;5036161;28;20076;-87
2021/07/17 01:19:15;;;;;;;0.40;0.40;;;15.00;99.90;;;;;;5040512;28;20037;-88
2021/07/17 01:21:41;;;;;;;0.10;0.10;;;15.00;99.90;;;;;;5036913;28;20027;-88
2021/07/17 01:24:07;;;;;;;0.20;0.20;;;15.00;99.90;;;;;;5043730;28;20441;-87
2021/07/17 01:26:33;;;;;;;0.27;0.27;;;15.00;99.90;;;;;;5040398;28;20151;-87
2021/07/17 01:28:58;;;;;;;0.13;0.13;;;15.00;99.90;;;;;;5039890;28;20112;-87
2021/07/17 01:31:24;;;;;;;0.13;0.13;;;15.10;99.90;;;;;;5035333;28;20013;-88
2021/07/17 01:33:50;;;;;;;0.00;0.00;;;15.20;99.90;;;;;;5049984;28;20060;-87
2021/07/17 01:36:17;;;;;;;0.10;0.10;;;15.20;99.90;;;;;;5036708;28;20497;-87
2021/07/17 01:38:42;;;;;;;0.55;0.20;;;15.20;99.90;;;;;;5039285;28;20498;-87
2021/07/17 01:41:09;;;;;;;0.00;0.00;;;15.10;99.90;;;;;;5038747;28;20038;-87
2021/07/17 01:43:36;;;;;;;0.10;0.10;;;15.10;99.90;;;;;;5032446;28;20029;-86
2021/07/17 01:46:02;;;;;;;0.20;0.20;;;15.10;99.90;;;;;;5040695;28;20076;-87
2021/07/17 01:48:28;;;;;;;0.35;0.30;;;15.10;99.90;;;;;;5038278;28;20048;-87
2021/07/17 01:50:54;;;;;;;0.70;0.60;;;15.20;99.90;;;;;;5033054;28;20107;-88
2021/07/17 01:53:21;;;;;;;0.13;0.13;;;15.20;99.90;;;;;;5043319;28;20024;-87
2021/07/17 01:55:47;;;;;;;0.35;0.35;;;15.20;99.90;;;;;;5042957;28;20535;-87
2021/07/17 01:58:13;;;;;;;1.33;0.23;;;15.10;99.90;;;;;;5040042;28;20034;-87
2021/07/17 02:00:39;;;;;;;0.10;0.10;;;15.00;99.90;;;;;;5034138;28;20615;-87
2021/07/17 02:03:06;;;;;;;0.20;0.20;;;14.80;99.90;;;;;;5039835;28;20400;-86
2021/07/17 02:05:32;;;;;;;;;;;14.70;99.90;;;;;;5047123;28;20036;-87
2021/07/17 02:07:59;;;;;;;0.22;0.22;;;15.00;99.90;;;;;;5039374;28;19916;-88
2021/07/17 02:10:27;;;;;;;0.10;0.10;;;14.90;99.90;;;;;;5036165;28;20417;-88
2021/07/17 02:13:06;;;;;;;0.00;0.00;;;15.00;99.90;;;;;;5039385;28;20026;-88
2021/07/17 02:15:41;;;;;;;0.08;0.08;;;14.90;99.90;;;;;;5030207;28;20033;-87
2021/07/17 02:18:07;;;;;;;0.52;0.32;;;14.70;99.90;;;;;;5038476;28;20375;-87
2021/07/17 02:20:33;;;;;;;0.88;0.65;;;14.70;99.90;;;;;;5042768;28;20037;-87
2021/07/17 02:22:59;;;;;;;0.20;0.20;;;14.70;99.90;;;;;;5035846;28;20063;-87
2021/07/17 02:25:25;;;;;;;0.37;0.37;;;14.70;99.90;;;;;;5031892;28;20465;-87
2021/07/17 02:27:51;;;;;;;0.40;0.40;;;14.60;99.90;;;;;;5029777;28;20108;-87
2021/07/17 02:30:18;;;;;;;0.10;0.10;;;14.50;99.90;;;;;;5042252;28;20306;-87
2021/07/17 02:32:44;;;;;;;0.20;0.20;;;14.50;99.90;;;;;;5040535;28;20043;-87
2021/07/17 02:35:10;;;;;;;0.30;0.30;;;14.30;99.90;;;;;;5038005;28;20502;-87
2021/07/17 02:37:36;;;;;;;0.57;0.50;;;14.50;99.90;;;;;;5040470;28;20069;-87
2021/07/17 02:40:03;;;;;;;0.10;0.10;;;14.50;99.90;;;;;;5029847;28;20087;-87
2021/07/17 02:42:29;;;;;;;0.30;0.30;;;14.40;99.90;;;;;;5029835;28;20033;-87
2021/07/17 02:44:55;;;;;;;0.10;0.10;;;14.60;99.90;;;;;;5034041;28;20033;-87
2021/07/17 02:47:21;;;;;;;0.20;0.20;;;14.80;99.90;;;;;;5040838;28;20029;-87
2021/07/17 02:49:46;;;;;;;0.10;0.10;;;14.70;99.90;;;;;;5033817;28;20040;-87
2021/07/17 02:52:12;;;;;;;0.20;0.20;;;14.70;99.90;;;;;;5031790;28;20561;-88
2021/07/17 02:54:38;;;;;;;0.27;0.27;;;14.80;99.90;;;;;;5029472;28;20037;-88
2021/07/17 02:57:04;;;;;;;0.47;0.47;;;15.00;99.90;;;;;;5035812;28;20034;-87
2021/07/17 02:59:30;;;;;;;0.20;0.20;;;14.90;99.90;;;;;;5037085;28;20112;-87
2021/07/17 03:01:55;;;;;;;0.00;0.00;;;14.80;99.90;;;;;;5042546;28;20579;-87
2021/07/17 03:04:21;;;;;;;0.27;0.27;;;14.80;99.90;;;;;;5039458;28;20103;-86
2021/07/17 03:06:47;;;;;;;0.10;0.10;;;14.70;99.90;;;;;;5041094;28;20540;-87
2021/07/17 03:09:13;;;;;;;0.17;0.17;;;14.80;99.90;;;;;;5032293;28;20030;-87
2021/07/17 03:11:38;;;;;;;0.33;0.33;;;14.70;99.90;;;;;;5045776;28;20159;-87
2021/07/17 03:14:04;;;;;;;0.20;0.20;;;14.60;99.90;;;;;;5040344;28;20025;-87
2021/07/17 03:16:31;;;;;;;0.20;0.20;;;14.50;99.90;;;;;;5029494;28;20095;-87
2021/07/17 03:18:58;;;;;;;0.32;0.32;;;14.60;99.90;;;;;;5029816;28;20040;-87
2021/07/17 03:21:24;;;;;;;0.22;0.22;;;14.40;99.90;;;;;;5043872;28;20017;-88
2021/07/17 03:23:50;;;;;;;0.15;0.15;;;14.50;99.90;;;;;;5044466;28;20029;-87
2021/07/17 03:26:16;;;;;;;0.50;0.50;;;14.30;99.90;;;;;;5044628;28;20036;-88
2021/07/17 03:28:42;;;;;;;0.17;0.17;;;14.30;99.90;;;;;;5036707;28;20035;-87
2021/07/17 03:31:08;;;;;;;0.10;0.10;;;14.30;99.90;;;;;;5040169;28;20500;-87
2021/07/17 03:33:34;;;;;;;0.20;0.20;;;14.20;99.90;;;;;;5042916;28;20026;-87
2021/07/17 03:36:01;;;;;;;1.85;0.80;;;14.30;99.90;;;;;;5037546;28;20042;-87
2021/07/17 03:38:27;;;;;;;0.60;0.35;;;14.20;99.90;;;;;;5033932;28;20116;-87
2021/07/17 03:40:53;;;;;;;0.07;0.07;;;14.10;99.90;;;;;;5047322;28;20029;-87
2021/07/17 03:43:19;;;;;;;0.00;0.00;;;14.10;99.90;;;;;;5040776;28;20099;-87
2021/07/17 03:45:45;;;;;;;8.77;0.40;;;14.10;99.90;;;;;;5033105;28;20739;-87
2021/07/17 03:48:11;;;;;;;0.27;0.27;;;14.30;99.90;;;;;;5040778;28;20025;-88
2021/07/17 03:50:37;;;;;;;0.30;0.30;;;14.40;99.90;;;;;;5038392;28;20095;-87
2021/07/17 03:53:03;;;;;;;0.27;0.27;;;14.20;99.90;;;;;;5035328;28;20047;-88
2021/07/17 03:55:30;;;;;;;1.50;0.68;;;14.30;99.90;;;;;;5028554;28;20041;-88
2021/07/17 03:57:56;;;;;;;0.32;0.32;;;14.40;99.90;;;;;;5028932;28;20037;-87
2021/07/17 04:00:22;;;;;;;0.57;0.53;;;14.70;99.90;;;;;;5039886;28;20025;-87
2021/07/17 04:02:48;;;;;;;0.10;0.10;;;14.70;99.90;;;;;;5042619;28;20029;-88
2021/07/17 04:05:16;;;;;;;0.10;0.10;;;14.50;99.90;;;;;;5033822;28;20811;-89
2021/07/17 04:07:42;;;;;;;0.10;0.10;;;14.50;99.90;;;;;;5035621;28;20033;-88
2021/07/17 04:10:10;;;;;;;0.10;0.10;;;14.30;99.90;;;;;;5036674;28;20044;-88
2021/07/17 04:12:36;;;;;;;0.00;0.00;;;14.30;99.90;;;;;;5040132;28;20531;-88
2021/07/17 04:15:04;;;;;;;0.10;0.10;;;14.10;99.90;;;;;;5037224;28;20038;-88
2021/07/17 04:17:30;;;;;;;0.05;0.05;;;14.20;99.90;;;;;;5044371;28;20115;-91
2021/07/17 04:19:56;;;;;;;0.10;0.10;;;14.20;99.90;;;;;;5043902;28;20121;-90
2021/07/17 04:22:22;;;;;;;0.20;0.20;;;14.10;99.90;;;;;;5033950;28;20132;-90
2021/07/17 04:24:48;;;;;;;0.00;0.00;;;14.10;99.90;;;;;;5042126;28;20076;-90
2021/07/17 04:27:14;;;;;;;0.10;0.10;;;14.10;99.90;;;;;;5048260;28;20790;-89
2021/07/17 04:29:40;;;;;;;0.45;0.32;;;14.00;99.90;;;;;;5034126;28;20033;-88
2021/07/17 04:32:06;;;;;;;0.10;0.10;;;14.00;99.90;;;;;;5042099;28;20076;-88
2021/07/17 04:34:32;;;;;;;0.10;0.10;;;13.90;99.90;;;;;;5031989;28;20041;-89
2021/07/17 04:36:58;;;;;;;0.40;0.40;;;13.90;99.90;;;;;;5039424;28;20343;-89
2021/07/17 04:39:25;;;;;;;0.20;0.20;;;14.20;99.90;;;;;;5042940;28;20033;-88
2021/07/17 04:41:51;;;;;;;0.60;0.43;;;14.80;99.90;;;;;;5040355;28;20025;-86
2021/07/17 04:44:17;;;;;;;0.43;0.20;;;15.10;99.90;;;;;;5040766;28;20025;-86
2021/07/17 04:46:43;;;;;;;0.10;0.10;;;15.20;99.90;;;;;;5037269;28;20052;-85
2021/07/17 04:49:09;;;;;;;0.10;0.10;;;15.80;99.90;;;;;;5044433;28;20037;-86
2021/07/17 04:51:34;;;;;;;0.20;0.20;;;16.10;99.90;;;;;;5039491;28;20090;-85
2021/07/17 04:54:00;;;;;;;0.10;0.10;;;16.50;99.90;;;;;;5040505;28;20033;-86
2021/07/17 04:56:26;;;;;;;0.17;0.17;;;16.90;99.90;;;;;;5037517;28;20091;-88
2021/07/17 04:58:52;;;;;;;0.00;0.00;;;17.80;99.90;;;;;;5035687;28;20056;-89
2021/07/17 05:01:21;;;;;;;2.20;0.93;;;18.00;99.90;;;;;;5037380;28;20044;-88
2021/07/17 05:03:47;;;;;;;0.05;0.05;;;18.20;99.90;;;;;;5036960;28;20497;-88
2021/07/17 05:06:13;;;;;;;0.00;0.00;;;18.20;99.90;;;;;;5036497;28;20026;-89
2021/07/17 05:08:39;;;;;;;0.00;0.00;;;18.70;99.90;;;;;;5037683;28;20509;-88
2021/07/17 05:11:05;;;;;;;0.20;0.20;;;20.00;99.90;;;;;;5031126;28;20056;-88
2021/07/17 05:13:31;;;;;;;0.00;0.00;;;20.60;99.90;;;;;;5037997;28;20030;-89
2021/07/17 05:15:57;;;;;;;0.20;0.20;;;19.90;99.90;;;;;;5036641;28;20033;-88
2021/07/17 05:18:23;;;;;;;0.33;0.07;;;20.50;99.90;;;;;;5041588;28;20044;-89
2021/07/17 05:20:49;;;;;;;0.20;0.20;;;20.70;99.90;;;;;;5041809;28;20039;-87
2021/07/17 05:23:18;;;;;;;0.22;0.10;;;21.40;99.90;;;;;;5041169;28;20025;-87
2021/07/17 05:25:44;;;;;;;0.32;0.32;;;21.50;99.90;;;;;;5035898;28;20026;-89
2021/07/17 05:28:11;;;;;;;0.20;0.20;;;22.60;99.90;;;;;;5040603;28;20793;-88
2021/07/17 05:30:37;;;;;;;0.75;0.45;;;22.20;99.90;;;;;;5041336;28;20037;-89
2021/07/17 05:33:03;;;;;;;0.35;0.22;;;22.70;99.90;;;;;;5037978;28;20044;-88
2021/07/17 05:35:30;;;;;;;0.00;0.00;;;21.30;99.90;;;;;;5043022;28;20029;-87
2021/07/17 05:37:57;;;;;;;0.10;0.10;;;21.50;99.90;;;;;;5036037;28;20132;-89
2021/07/17 05:40:23;;;;;;;0.00;0.00;;;23.00;99.90;;;;;;5037920;28;20033;-88
2021/07/17 05:42:48;;;;;;;0.00;0.00;;;23.20;99.90;;;;;;5036998;28;20045;-88
2021/07/17 05:45:14;;;;;;;0.43;0.30;;;23.40;99.90;;;;;;5037730;28;20025;-88
2021/07/17 05:47:40;;;;;;;0.00;0.00;;;22.90;99.90;;;;;;5042805;28;20029;-88
2021/07/17 05:50:06;;;;;;;0.00;0.00;;;23.70;99.90;;;;;;5034946;28;20508;-89
2021/07/17 05:52:34;;;;;;;;;;;23.10;99.90;;;;;;5039156;28;20032;-89
2021/07/17 05:54:59;;;;;;;0.00;0.00;;;21.90;99.90;;;;;;5036115;28;20043;-89
2021/07/17 05:57:25;;;;;;;0.00;0.00;;;21.90;99.90;;;;;;5031269;28;20124;-89
2021/07/17 05:59:51;;;;;;;0.10;0.10;;;23.40;99.90;;;;;;5039520;28;20025;-89
2021/07/17 06:02:17;;;;;;;0.28;0.28;;;23.70;99.90;;;;;;5046666;28;20025;-89
2021/07/17 06:04:44;;;;;;;0.00;0.00;;;22.50;99.90;;;;;;5030378;28;20029;-89
2021/07/17 06:07:10;;;;;;;0.08;0.08;;;22.90;99.90;;;;;;5040970;28;20020;-89
2021/07/17 06:09:35;;;;;;;0.05;0.05;;;24.30;99.90;;;;;;5038001;28;20824;-89
2021/07/17 06:12:02;;;;;;;0.00;0.00;;;23.20;99.90;;;;;;5038481;28;20711;-89
2021/07/17 06:14:27;;;;;;;0.00;0.00;;;23.90;99.90;;;;;;5045861;28;20111;-89
2021/07/17 06:16:53;;;;;;;0.00;0.00;;;22.80;99.90;;;;;;5034623;28;20128;-88
2021/07/17 06:19:19;;;;;;;0.00;0.00;;;23.60;99.90;;;;;;5039625;28;20500;-89
2021/07/17 06:21:45;;;;;;;0.05;0.05;;;25.30;99.90;;;;;;5031719;28;20184;-89
2021/07/17 06:24:11;;;;;;;0.08;0.00;;;24.90;99.90;;;;;;5036229;28;20023;-89
2021/07/17 06:26:37;;;;;;;0.30;0.30;;;24.40;99.90;;;;;;5038991;28;20029;-89
2021/07/17 06:29:02;;;;;;;0.25;0.20;;;25.30;99.90;;;;;;5030149;28;20079;-90
2021/07/17 06:31:28;;;;;;;0.10;0.10;;;26.00;99.90;;;;;;5040303;28;20030;-89
2021/07/17 06:33:54;;;;;;;0.00;0.00;;;27.40;99.90;;;;;;5035241;28;20021;-90
2021/07/17 06:36:20;;;;;;;0.00;0.00;;;25.80;99.90;;;;;;5037900;28;20709;-90
2021/07/17 06:38:47;;;;;;;0.15;0.15;;;27.40;99.90;;;;;;5034744;28;20025;-89
2021/07/17 06:41:13;;;;;;;0.15;0.10;;;26.20;99.90;;;;;;5036026;28;20031;-89
2021/07/17 06:43:39;;;;;;;7.15;0.35;;;26.60;99.90;;;;;;5040511;28;20036;-89
2021/07/17 06:46:05;;;;;;;0.17;0.17;;;27.00;99.90;;;;;;5037406;28;20033;-89
2021/07/17 06:48:32;;;;;;;0.00;0.00;;;26.40;99.90;;;;;;5043678;28;20101;-90
2021/07/17 06:50:58;;;;;;;0.40;0.40;;;26.50;99.90;;;;;;5042325;28;20027;-89
2021/07/17 06:53:29;;;;;;;0.22;0.20;;;27.80;99.90;;;;;;5038962;28;20100;-90
2021/07/17 06:55:55;;;;;;;0.20;0.20;;;26.80;99.00;;;;;;5043561;28;20041;-90
2021/07/17 06:58:21;;;;;;;0.00;0.00;;;25.90;99.90;;;;;;5035069;28;20095;-89
2021/07/17 07:00:48;;;;;;;0.00;0.00;;;27.30;99.70;;;;;;5049997;28;20033;-89
2021/07/17 07:03:14;;;;;;;0.30;0.10;;;27.90;97.90;;;;;;5036274;28;20040;-90
2021/07/17 07:05:40;;;;;;;0.05;0.05;;;26.90;99.40;;;;;;5046242;28;20515;-89
2021/07/17 07:08:06;;;;;;;0.00;0.00;;;25.50;99.70;;;;;;5034518;28;20061;-89
2021/07/17 07:10:32;;;;;;;0.00;0.00;;;26.30;99.70;;;;;;5045491;28;20052;-89
2021/07/17 07:12:58;;;;;;;0.00;0.00;;;26.10;99.50;;;;;;5047506;28;20036;-88
2021/07/17 07:15:25;;;;;;;0.00;0.00;;;26.50;98.80;;;;;;5039713;28;20505;-89
2021/07/17 07:17:52;;;;;;;0.63;0.10;;;25.20;99.90;;;;;;5040034;28;20033;-89
2021/07/17 07:20:18;;;;;;;0.10;0.10;;;26.70;98.60;;;;;;5032746;28;20121;-90
2021/07/17 07:22:45;;;;;;;0.15;0.08;;;26.60;99.00;;;;;;5031077;28;20029;-89
2021/07/17 07:25:12;;;;;;;0.10;0.03;;;26.40;99.20;;;;;;5031073;28;20066;-89
2021/07/17 07:27:38;;;;;;;0.57;0.03;;;26.60;99.00;;;;;;5032006;28;20541;-89
2021/07/17 07:30:05;;;;;;;0.55;0.25;;;26.00;99.00;;;;;;5032533;28;20159;-89
2021/07/17 07:32:33;;;;;;;0.20;0.20;;;25.40;99.60;;;;;;5034943;28;20409;-89
2021/07/17 07:34:59;;;;;;;0.40;0.20;;;25.20;99.90;;;;;;5037198;28;20108;-91
2021/07/17 07:37:27;;;;;;;0.00;0.00;;;25.20;99.50;;;;;;5040570;28;20548;-91
2021/07/17 07:39:54;;;;;;;0.50;0.40;;;26.80;98.30;;;;;;5036924;28;20133;-92
2021/07/17 07:42:21;;;;;;;0.10;0.10;;;26.60;97.70;;;;;;5028959;28;20113;-91
2021/07/17 07:44:47;;;;;;;0.10;0.10;;;26.10;99.90;;;;;;5037553;28;20029;-91
2021/07/17 07:47:12;;;;;;;0.38;0.20;;;26.00;98.50;;;;;;5030744;28;20021;-90
2021/07/17 07:49:39;;;;;;;;;;;26.90;96.30;;;;;;5032148;28;20056;-90
2021/07/17 07:52:05;;;;;;;0.17;0.10;;;27.80;96.50;;;;;;5037309;28;19912;-90
2021/07/17 07:54:31;;;;;;;;;;;27.30;96.00;;;;;;5034425;28;20728;-92
2021/07/17 07:56:57;;;;;;;0.10;0.10;;;27.30;96.20;;;;;;5033419;28;19920;-90
2021/07/17 07:59:22;;;;;;;;;;;28.80;94.80;;;;;;5040297;28;20087;-90
2021/07/17 08:01:48;;;;;;;0.40;0.40;;;26.70;94.70;;;;;;5041512;28;19994;-89
2021/07/17 08:04:14;;;;;;;;;;;28.70;94.60;;;;;;5042134;28;20117;-89
2021/07/17 08:06:40;;;;;;;0.00;0.00;;;29.30;93.10;;;;;;5033165;28;20655;-90
2021/07/17 08:09:05;;;;;;;;;;;28.10;92.40;;;;;;5034982;28;20025;-90
2021/07/17 08:11:32;;;;;;;0.30;0.28;;;29.90;91.40;;;;;;5033473;28;20427;-89
2021/07/17 08:13:58;;;;;;;1.08;0.17;;;30.40;89.10;;;;;;5039789;28;20032;-90
2021/07/17 08:16:23;;;;;;;;;;;30.50;90.40;;;;;;5036213;28;20100;-89
2021/07/17 08:18:49;;;;;;;0.30;0.30;;;29.50;89.90;;;;;;5036660;28;19952;-88
2021/07/17 08:21:15;;;;;;;0.00;0.00;;;28.60;90.40;;;;;;5043738;28;20025;-88
2021/07/17 08:23:41;;;;;;;0.00;0.00;;;28.90;90.50;;;;;;5034679;28;20155;-87
2021/07/17 08:26:07;;;;;;;;;;;28.20;90.60;;;;;;5047701;28;20029;-88
2021/07/17 08:28:32;;;;;;;0.30;0.30;;;28.40;91.40;;;;;;5038096;28;19913;-88
2021/07/17 08:30:59;;;;;;;;;;;28.40;90.90;;;;;;5038590;28;20039;-88
2021/07/17 08:33:24;;;;;;;0.00;0.00;;;28.60;91.20;;;;;;5033955;28;19978;-88
2021/07/17 08:35:50;;;;;;;;;;;29.50;87.50;;;;;;5039476;28;20528;-88
2021/07/17 08:38:16;;;;;;;0.68;0.40;;;28.90;89.20;;;;;;5036034;28;19908;-87
2021/07/17 08:40:47;;;;;;;;;;;28.90;90.30;;;;;;5045495;28;20025;-88
2021/07/17 08:43:13;;;;;;;0.35;0.35;;;28.20;88.60;;;;;;5042788;28;19913;-88
2021/07/17 08:45:38;;;;;;;;;;;28.60;89.90;;;;;;5033926;28;20052;-88
2021/07/17 08:48:09;;;;;;;0.13;0.13;;;29.80;84.30;;;;;;5038392;28;19917;-88
2021/07/17 08:50:35;;;;;;;0.10;0.03;;;29.70;94.50;;;;;;5047985;28;20116;-88
2021/07/17 08:53:01;;;;;;;0.10;0.10;;;30.60;83.80;;;;;;5040568;28;20033;-88
2021/07/17 08:55:27;;;;;;;;;;;31.40;92.20;;;;;;5039131;28;20206;-88
2021/07/17 08:57:53;;;;;;;0.10;0.10;;;30.90;81.10;;;;;;5038520;28;19921;-88
2021/07/17 09:00:20;;;;;;;;;;;31.50;76.40;;;;;;5036594;28;20028;-89
2021/07/17 09:02:48;;;;;;;0.00;0.00;;;31.70;73.20;;;;;;5046006;28;19917;-89
2021/07/17 09:05:16;;;;;;;0.25;0.25;;;33.70;72.70;;;;;;5032022;28;20025;-91
2021/07/17 09:07:43;;;;;;;0.00;0.00;;;33.10;67.80;;;;;;5039555;28;20558;-88
2021/07/17 09:10:41;;;;;;;0.00;0.00;;;33.50;63.50;;;;;;5041459;28;20032;-90
2021/07/17 09:13:11;;;;;;;0.25;0.25;;;31.90;66.90;;;;;;5046061;28;20083;-87
2021/07/17 09:15:42;;;;;;;0.40;0.40;;;32.00;69.40;;;;;;5044907;28;20043;-87
2021/07/17 09:18:09;;;;;;;0.30;0.30;;;32.20;67.60;;;;;;5035470;28;20068;-88
2021/07/17 09:20:36;;;;;;;0.20;0.20;;;32.40;65.30;;;;;;5042099;28;20013;-88
2021/07/17 09:23:04;;;;;;;0.55;0.13;;;31.80;67.80;;;;;;5046094;28;20086;-88
2021/07/17 09:25:43;;;;;;;0.03;0.03;;;30.10;71.40;;;;;;5049705;28;20024;-88
2021/07/17 09:28:17;;;;;;;0.45;0.30;;;30.60;65.30;;;;;;5037771;28;20076;-88
2021/07/17 09:30:44;;;;;;;0.00;0.00;;;32.60;62.30;;;;;;5034588;28;20037;-88
2021/07/17 09:33:11;;;;;;;0.00;0.00;;;33.10;61.60;;;;;;5036469;28;20060;-88
2021/07/17 09:35:43;;;;;;;0.05;0.05;;;31.50;63.50;;;;;;5030307;28;20116;-87
2021/07/17 09:38:09;;;;;;;0.13;0.10;;;32.80;64.10;;;;;;5042122;28;20032;-87
2021/07/17 09:40:56;;;;;;;0.00;0.00;;;35.00;56.30;;;;;;5040514;28;20017;-87
2021/07/17 09:43:33;;;;;;;0.30;0.30;;;32.40;56.90;;;;;;5042606;28;20060;-87
2021/07/17 09:46:00;;;;;;;0.20;0.20;;;33.10;58.50;;;;;;5040941;28;20107;-88
2021/07/17 09:48:33;;;;;;;0.10;0.10;;;34.10;57.20;;;;;;5060235;28;20040;-87
2021/07/17 09:51:01;;;;;;;0.10;0.10;;;32.40;56.80;;;;;;5052696;28;20090;-87
2021/07/17 09:53:50;;;;;;;0.00;0.00;;;31.80;59.60;;;;;;5040764;28;20051;-86
2021/07/17 09:56:21;;;;;;;0.55;0.03;;;33.30;53.40;;;;;;5031212;28;20067;-87
2021/07/17 09:58:47;;;;;;;0.10;0.10;;;34.50;51.50;;;;;;5039344;28;20033;-87
2021/07/17 10:01:25;;;;;;;0.00;0.00;;;35.10;49.40;;;;;;5035734;28;20059;-87
2021/07/17 10:03:56;;;;;;;0.00;0.00;;;33.90;53.00;;;;;;5043181;28;20025;-88
2021/07/17 10:06:26;;;;;;;0.45;0.15;;;34.00;54.10;;;;;;5035747;28;20051;-88
2021/07/17 10:08:52;;;;;;;0.20;0.20;;;35.50;48.50;;;;;;5041125;28;20079;-88
2021/07/17 10:11:26;;;;;;;0.00;0.00;;;34.80;48.20;;;;;;5042497;28;20025;-88
2021/07/17 10:13:53;;;;;;;0.00;0.00;;;37.10;39.60;;;;;;5037282;28;20037;-88
2021/07/17 10:16:26;;;;;;;0.17;0.10;;;35.20;49.70;;;;;;5034746;28;20034;-88
2021/07/17 10:18:53;;;;;;;0.00;0.00;;;33.60;48.50;;;;;;5033397;28;20111;-88
2021/07/17 10:21:21;;;;;;;0.10;0.10;;;31.50;52.40;;;;;;5037810;28;20034;-87
2021/07/17 10:23:47;;;;;;;0.00;0.00;;;29.80;56.50;;;;;;5030823;28;20489;-87
2021/07/17 10:26:14;;;;;;;0.10;0.10;;;33.70;49.30;;;;;;5032757;28;20036;-88
2021/07/17 10:28:40;;;;;;;0.10;0.10;;;30.80;53.10;;;;;;5037255;28;20037;-87
2021/07/17 10:31:06;;;;;;;0.03;0.03;;;31.70;56.00;;;;;;5044192;28;20408;-87
2021/07/17 10:33:34;;;;;;;0.10;0.00;;;31.50;54.00;;;;;;5036459;28;20569;-87
2021/07/17 10:36:06;;;;;;;0.00;0.00;;;28.20;63.20;;;;;;5038129;28;20135;-87
2021/07/17 10:38:34;;;;;;;0.00;0.00;;;31.40;54.50;;;;;;5035567;28;20022;-87
2021/07/17 10:41:00;;;;;;;0.00;0.00;;;32.20;52.80;;;;;;5038316;28;20493;-87
2021/07/17 10:43:27;;;;;;;0.00;0.00;;;31.00;56.90;;;;;;5038265;28;20025;-88
2021/07/17 10:45:53;;;;;;;6.63;1.35;;;32.30;52.90;;;;;;5047942;28;20037;-88
2021/07/17 10:48:21;;;;;;;0.20;0.20;;;33.10;49.70;;;;;;5043917;28;20401;-88
2021/07/17 10:50:47;;;;;;;0.00;0.00;;;32.60;52.80;;;;;;5049755;28;20041;-88
2021/07/17 10:53:41;;;;;;;0.00;0.00;;;32.50;51.10;;;;;;5029848;28;20399;-88
2021/07/17 10:56:29;;;;;;;0.00;0.00;;;32.30;51.40;;;;;;5047183;28;20068;-88
2021/07/17 10:59:01;;;;;;;0.10;0.10;;;31.10;54.50;;;;;;5046793;28;20069;-88
2021/07/17 11:01:47;;;;;;;0.00;0.00;;;30.80;53.30;;;;;;5029311;28;20075;-88
2021/07/17 11:04:32;;;;;;;0.77;0.20;;;31.00;49.30;;;;;;5035550;28;20033;-88
2021/07/17 11:07:16;;;;;;;0.30;0.20;;;33.20;50.00;;;;;;5031755;28;20014;-88
2021/07/17 11:09:50;;;;;;;0.40;0.20;;;31.60;48.10;;;;;;5039376;28;20515;-89
2021/07/17 11:12:17;;;;;;;0.00;0.00;;;33.70;48.40;;;;;;5041630;28;20082;-89
2021/07/17 11:14:43;;;;;;;0.20;0.10;;;34.00;47.20;;;;;;5034561;28;20044;-86
2021/07/17 11:17:09;;;;;;;0.00;0.00;;;35.20;43.70;;;;;;5036803;28;20029;-86
2021/07/17 11:19:35;;;;;;;0.00;0.00;;;34.40;45.50;;;;;;5038843;28;20497;-89
2021/07/17 11:22:12;;;;;;;0.20;0.20;;;32.40;46.50;;;;;;5035018;28;21198;-86
2021/07/17 11:24:39;;;;;;;0.00;0.00;;;32.70;45.30;;;;;;5043330;28;20098;-87
2021/07/17 11:27:09;;;;;;;;;;;31.60;47.50;;;;;;5045786;28;20049;-86
2021/07/17 11:29:41;;;;;;;0.10;0.10;;;30.70;49.70;;;;;;5037567;28;19913;-86
2021/07/17 11:32:09;;;;;;;0.15;0.15;;;34.10;43.90;;;;;;5030711;28;20037;-87
2021/07/17 11:34:39;;;;;;;0.00;0.00;;;35.20;39.60;;;;;;5032640;28;20108;-88
2021/07/17 11:37:07;;;;;;;0.00;0.00;;;32.40;47.70;;;;;;5033238;28;20032;-88
2021/07/17 11:39:35;;;;;;;0.13;0.10;;;28.20;53.00;;;;;;5034540;28;20036;-88
2021/07/17 11:42:04;;;;;;;0.00;0.00;;;26.00;59.00;;;;;;5037817;28;20065;-88
2021/07/17 11:44:33;;;;;;;0.00;0.00;;;26.40;61.00;;;;;;5039664;28;20092;-87
2021/07/17 11:47:00;;;;;;;0.10;0.10;;;26.10;60.50;;;;;;5034781;28;20037;-88
2021/07/17 11:49:35;;;;;;;1.77;0.45;;;25.50;63.70;;;;;;5036768;28;20028;-89
2021/07/17 11:52:04;;;;;;;0.00;0.00;;;25.00;63.30;;;;;;5026930;28;20040;-88
2021/07/17 11:54:35;;;;;;;0.47;0.15;;;25.10;78.10;;;;;;5037938;28;20041;-88
2021/07/17 11:57:11;;;;;;;0.28;0.20;;;25.20;66.20;;;;;;5031710;28;20751;-87
2021/07/17 11:59:39;;;;;;;0.30;0.17;;;25.90;64.90;;;;;;5045431;28;20079;-87
2021/07/17 12:02:09;;;;;;;0.00;0.00;;;25.80;65.20;;;;;;5030527;28;20033;-88
2021/07/17 12:04:48;;;;;;;0.38;0.10;;;25.80;64.50;;;;;;5037400;28;20018;-89
2021/07/17 12:07:23;;;;;;;0.10;0.10;;;25.00;66.50;;;;;;5029114;28;20125;-87
2021/07/17 12:09:55;;;;;;;0.10;0.10;;;25.20;69.60;;;;;;5028004;28;20029;-87
2021/07/17 12:12:29;;;;;;;0.00;0.00;;;24.90;68.90;;;;;;5027934;28;20026;-88
2021/07/17 12:15:07;;;;;;;0.10;0.10;;;25.50;67.30;;;;;;5028344;28;20043;-87
2021/07/17 12:17:34;;;;;;;0.00;0.00;;;25.60;67.80;;;;;;5036321;28;20095;-86
2021/07/17 12:20:28;;;;;;;0.10;0.10;;;24.90;68.90;;;;;;5043628;28;20029;-88
2021/07/17 12:22:58;;;;;;;0.20;0.20;;;25.00;69.40;;;;;;5039542;28;20037;-87
2021/07/17 12:25:40;;;;;;;0.00;0.00;;;25.10;68.50;;;;;;5047888;28;20036;-87
2021/07/17 12:28:21;;;;;;;0.90;0.52;;;25.30;69.40;;;;;;5046862;28;20568;-87
2021/07/17 12:31:01;;;;;;;0.10;0.10;;;25.60;69.40;;;;;;5036777;28;20103;-87
2021/07/17 12:33:32;;;;;;;0.00;0.00;;;25.80;68.60;;;;;;5041020;28;20032;-87
2021/07/17 12:36:16;;;;;;;0.40;0.30;;;25.70;70.10;;;;;;5032737;28;20029;-87
2021/07/17 12:38:50;;;;;;;0.30;0.13;;;26.00;69.60;;;;;;5040945;28;20076;-87
2021/07/17 12:41:20;;;;;;;0.10;0.10;;;25.70;69.50;;;;;;5031855;28;20126;-87
2021/07/17 12:43:51;;;;;;;0.08;0.08;;;25.50;69.20;;;;;;5032785;28;20020;-87
2021/07/17 12:46:29;;;;;;;0.20;0.13;;;25.60;71.10;;;;;;5031971;28;20025;-87
2021/07/17 12:49:05;;;;;;;0.05;0.05;;;25.10;71.50;;;;;;5040143;28;20051;-87
2021/07/17 12:51:51;;;;;;;0.10;0.10;;;25.10;71.00;;;;;;5046721;28;20033;-86
2021/07/17 12:54:19;;;;;;;0.00;0.00;;;25.20;71.70;;;;;;5048300;28;20045;-86